Time;durP1;ratioP1;P1;durP2;ratioP2;P2;SDS_P1;SDS_P2;PMS_P1;PMS_P2;Temp;Humidity;BMP_temperature;BMP_pressure;BME280_temperature;BME280_humidity;BME280_pressure;Samples;Min_cycle;Max_cycle;Signal;HPM_P1;HPM_P2
2022/03/05 00:01:43;;;;;;;22.83;12.87;;;;;;;5.56;48.82;94397.41;5050290;28;20195;-80
2022/03/05 00:04:09;;;;;;;21.10;13.77;;;;;;;5.53;48.93;94385.78;5049925;28;20672;-81
2022/03/05 00:06:36;;;;;;;19.77;13.87;;;;;;;5.55;48.86;94400.88;5049909;28;20191;-78
2022/03/05 00:09:04;;;;;;;24.57;14.27;;;;;;;5.50;49.00;94390.28;5049667;28;20194;-81
2022/03/05 00:11:31;;;;;;;26.43;15.23;;;;;;;5.51;49.06;94395.22;5049488;28;20199;-80
2022/03/05 00:13:58;;;;;;;21.00;14.73;;;;;;;5.50;48.95;94393.59;5052450;28;20212;-80
2022/03/05 00:16:25;;;;;;;24.30;14.63;;;;;;;5.49;49.18;94393.72;5053726;28;20187;-80
2022/03/05 00:18:52;;;;;;;22.30;13.90;;;;;;;5.49;49.06;94393.72;5053193;28;20571;-81
2022/03/05 00:21:18;;;;;;;25.07;15.43;;;;;;;5.49;49.31;94391.19;5053504;28;20191;-80
2022/03/05 00:23:45;;;;;;;21.60;14.03;;;;;;;5.48;49.34;94394.63;5053790;28;20256;-81
2022/03/05 00:26:13;;;;;;;21.20;13.57;;;;;;;5.46;49.36;94399.81;5053714;28;20266;-77
2022/03/05 00:28:40;;;;;;;23.27;14.17;;;;;;;5.46;49.27;94389.69;5053795;28;20202;-80
2022/03/05 00:31:07;;;;;;;23.60;13.73;;;;;;;5.46;49.29;94401.56;5053608;28;20202;-80
2022/03/05 00:33:34;;;;;;;22.90;14.50;;;;;;;5.44;49.06;94398.31;5053302;28;20260;-77
2022/03/05 00:36:01;;;;;;;23.17;14.20;;;;;;;5.44;49.24;94398.31;5053857;28;20240;-79
2022/03/05 00:38:28;;;;;;;23.13;13.37;;;;;;;5.44;49.16;94400.84;5052964;28;20233;-80
2022/03/05 00:40:54;;;;;;;19.07;12.70;;;;;;;5.42;49.26;94402.72;5053097;28;20187;-79
2022/03/05 00:43:23;;;;;;;19.43;13.90;;;;;;;5.22;49.25;94364.44;5052938;28;20183;-78
2022/03/05 00:45:49;;;;;;;16.77;12.97;;;;;;;5.40;49.28;94399.50;5053247;28;20202;-80
2022/03/05 00:48:17;;;;;;;19.53;11.80;;;;;;;5.36;49.25;94390.50;5053408;28;20183;-80
2022/03/05 00:50:43;;;;;;;23.97;13.70;;;;;;;5.38;49.26;94388.63;5053599;28;20183;-77
2022/03/05 00:53:12;;;;;;;20.60;13.47;;;;;;;5.35;49.17;94383.78;5053252;28;20198;-77
2022/03/05 00:55:39;;;;;;;19.87;13.50;;;;;;;5.36;49.29;94386.22;5053275;28;20187;-81
2022/03/05 00:58:06;;;;;;;19.97;12.23;;;;;;;5.36;49.22;94395.56;5053027;28;20284;-81
2022/03/05 01:00:34;;;;;;;20.67;11.93;;;;;;;5.33;49.37;94373.78;5053384;28;20187;-80
2022/03/05 01:03:02;;;;;;;19.77;11.87;;;;;;;5.33;49.41;94383.91;5052873;28;20201;-79
2022/03/05 01:05:29;;;;;;;17.57;12.60;;;;;;;5.33;49.45;94383.91;5053101;28;20278;-80
2022/03/05 01:07:55;;;;;;;22.00;14.17;;;;;;;5.33;49.60;94385.66;5052856;28;20199;-79
2022/03/05 01:10:22;;;;;;;19.43;12.50;;;;;;;4.81;49.51;94309.19;5052742;28;20198;-81
2022/03/05 01:12:49;;;;;;;19.23;12.17;;;;;;;5.31;49.86;94378.16;5052895;28;20646;-80
2022/03/05 01:15:16;;;;;;;27.00;13.43;;;;;;;5.31;49.68;94378.16;5053123;28;20187;-80
2022/03/05 01:17:44;;;;;;;24.67;13.50;;;;;;;5.31;49.62;94374.78;5052765;28;20214;-80
2022/03/05 01:20:12;;;;;;;19.33;12.47;;;;;;;5.28;49.79;94368.25;5052652;28;20238;-80
2022/03/05 01:22:39;;;;;;;21.77;12.73;;;;;;;5.26;49.91;94362.47;5052441;28;20195;-78
2022/03/05 01:25:06;;;;;;;18.40;12.47;;;;;;;5.30;50.29;94368.91;5052525;28;20191;-75
2022/03/05 01:27:33;;;;;;;18.93;11.97;;;;;;;5.28;50.01;94363.16;5053440;28;20190;-82
2022/03/05 01:30:00;;;;;;;17.80;12.27;;;;;;;5.28;50.17;94371.56;5054566;28;20187;-79
2022/03/05 01:32:26;;;;;;;19.00;12.63;;;;;;;5.29;50.21;94375.72;5052602;28;20236;-79
2022/03/05 01:34:54;;;;;;;22.03;12.43;;;;;;;5.25;50.44;94364.19;5052209;28;20190;-80
2022/03/05 01:37:21;;;;;;;22.93;13.43;;;;;;;5.23;50.38;94366.06;5052028;28;20206;-81
2022/03/05 01:39:48;;;;;;;23.33;13.23;;;;;;;5.27;50.51;94376.78;5052162;28;20199;-82
2022/03/05 01:42:19;;;;;;;27.50;14.10;;;;;;;5.12;50.75;94347.47;5052044;28;20194;-80
2022/03/05 01:44:46;;;;;;;22.73;13.23;;;;;;;5.13;50.79;94346.53;5052000;28;20597;-75
2022/03/05 01:47:13;;;;;;;24.40;14.50;;;;;;;5.32;50.83;94366.28;5051508;28;20202;-81
2022/03/05 01:49:40;;;;;;;21.90;13.57;;;;;;;5.30;50.95;94361.31;5051988;28;20569;-77
2022/03/05 01:52:09;;;;;;;21.27;14.07;;;;;;;5.36;50.87;94367.69;5051760;28;20187;-77
2022/03/05 01:54:35;;;;;;;22.27;14.13;;;;;;;5.33;50.88;94360.28;5051555;28;20187;-77
2022/03/05 01:57:04;;;;;;;22.43;14.27;;;;;;;5.41;50.84;94370.69;5051405;28;20187;-80
2022/03/05 01:59:31;;;;;;;23.27;14.37;;;;;;;5.44;50.85;94363.66;5051617;28;20211;-75
2022/03/05 02:01:58;;;;;;;21.20;14.00;;;;;;;5.47;50.81;94360.84;5051657;28;20183;-76
2022/03/05 02:04:25;;;;;;;20.13;13.37;;;;;;;5.51;50.87;94363.97;5051808;28;20195;-77
2022/03/05 02:06:53;;;;;;;20.53;14.13;;;;;;;5.36;50.86;94335.53;5050930;28;20669;-79
2022/03/05 02:09:21;;;;;;;24.37;13.43;;;;;;;5.54;51.06;94351.88;5051335;28;20230;-77
2022/03/05 02:11:48;;;;;;;25.40;13.60;;;;;;;5.61;51.17;94356.47;5051223;28;20728;-77
2022/03/05 02:14:17;;;;;;;19.50;13.03;;;;;;;5.43;51.13;94320.63;5051702;28;20595;-80
2022/03/05 02:16:44;;;;;;;19.97;14.00;;;;;;;5.50;51.16;94324.34;5051056;28;20195;-77
2022/03/05 02:19:11;;;;;;;26.50;15.17;;;;;;;5.66;51.09;94355.22;5050875;28;20238;-79
2022/03/05 02:21:39;;;;;;;22.63;13.90;;;;;;;5.71;51.17;94357.41;5051275;28;20198;-80
2022/03/05 02:24:06;;;;;;;23.63;13.70;;;;;;;5.74;51.33;94357.16;5051302;28;20195;-79
2022/03/05 02:26:33;;;;;;;26.53;14.23;;;;;;;5.76;51.29;94363.75;5051250;28;20693;-81
2022/03/05 02:29:00;;;;;;;21.63;13.43;;;;;;;5.79;51.29;94366.06;5051229;28;20652;-79
2022/03/05 02:31:27;;;;;;;21.67;13.97;;;;;;;5.82;51.35;94362.47;5051339;28;20769;-77
2022/03/05 02:33:55;;;;;;;19.37;12.80;;;;;;;5.84;51.28;94360.63;5051143;28;20206;-82
2022/03/05 02:36:24;;;;;;;23.63;15.13;;;;;;;5.86;51.20;94365.56;5050201;28;20210;-78
2022/03/05 02:38:53;;;;;;;27.10;14.10;;;;;;;5.86;51.08;94358.75;5051001;28;20223;-79
2022/03/05 02:41:20;;;;;;;21.33;13.00;;;;;;;5.88;51.00;94369.63;5051557;28;20685;-80
2022/03/05 02:43:47;;;;;;;21.93;13.00;;;;;;;5.88;51.08;94359.47;5050881;28;20195;-78
2022/03/05 02:46:14;;;;;;;18.20;11.73;;;;;;;5.89;50.92;94365.34;5050777;28;20198;-79
2022/03/05 02:48:41;;;;;;;19.87;12.93;;;;;;;5.89;51.08;94361.06;5050655;28;20195;-81
2022/03/05 02:51:08;;;;;;;20.50;13.53;;;;;;;5.90;50.95;94362.69;5050672;28;20199;-80
2022/03/05 02:53:35;;;;;;;19.87;12.57;;;;;;;5.89;50.85;94365.34;5051221;28;20195;-81
2022/03/05 02:56:05;;;;;;;18.97;12.53;;;;;;;5.91;50.99;94360.94;5050934;28;20270;-80
2022/03/05 02:58:31;;;;;;;18.37;11.87;;;;;;;5.92;51.06;94365.16;5050652;28;20206;-81
2022/03/05 03:00:58;;;;;;;20.60;13.23;;;;;;;5.88;51.23;94356.13;5050629;28;20191;-77
2022/03/05 03:03:25;;;;;;;19.13;11.73;;;;;;;5.94;51.18;94365.81;5050866;28;20615;-80
2022/03/05 03:05:52;;;;;;;22.00;13.47;;;;;;;5.94;51.45;94366.63;5050900;28;20581;-81
2022/03/05 03:08:19;;;;;;;17.17;12.87;;;;;;;5.91;51.42;94358.41;5050864;28;20191;-78
2022/03/05 03:10:45;;;;;;;18.47;12.63;;;;;;;5.92;51.38;94365.97;5050618;28;20191;-79
2022/03/05 03:13:13;;;;;;;17.60;12.80;;;;;;;5.94;51.58;94365.81;5050271;28;20348;-80
2022/03/05 03:15:40;;;;;;;19.43;12.77;;;;;;;5.93;51.70;94375.19;5050215;28;20543;-81
2022/03/05 03:18:07;;;;;;;22.33;13.57;;;;;;;5.84;51.75;94359.81;5050285;28;20575;-78
2022/03/05 03:20:34;;;;;;;22.90;13.67;;;;;;;5.93;51.81;94370.09;5050322;28;20233;-78
2022/03/05 03:23:01;;;;;;;21.27;13.63;;;;;;;5.92;51.88;94373.56;5050332;28;20666;-80
2022/03/05 03:25:28;;;;;;;19.17;13.03;;;;;;;5.93;51.97;94365.03;5050501;28;20190;-80
2022/03/05 03:27:54;;;;;;;24.20;14.27;;;;;;;5.92;51.79;94373.56;5050536;28;20569;-80
2022/03/05 03:30:23;;;;;;;24.80;13.60;;;;;;;5.90;51.88;94361.88;5050486;28;20543;-80
2022/03/05 03:32:49;;;;;;;21.57;13.20;;;;;;;5.86;51.93;94352.88;5050615;28;20191;-78
2022/03/05 03:35:17;;;;;;;20.83;13.37;;;;;;;5.90;51.92;94369.50;5050769;28;20190;-81
2022/03/05 03:37:45;;;;;;;17.90;13.63;;;;;;;5.90;52.08;94369.50;5050540;28;20195;-82
2022/03/05 03:40:14;;;;;;;20.50;13.77;;;;;;;5.89;52.16;94363.63;5050198;28;20744;-80
2022/03/05 03:42:41;;;;;;;22.70;14.43;;;;;;;5.89;52.02;94378.03;5050360;28;20187;-80
2022/03/05 03:45:10;;;;;;;23.23;13.83;;;;;;;5.87;52.25;94379.88;5050883;28;20184;-77
2022/03/05 03:47:40;;;;;;;20.83;14.50;;;;;;;5.85;52.29;94374.91;5052458;28;20273;-80
2022/03/05 03:50:08;;;;;;;24.50;15.17;;;;;;;5.84;52.35;94372.50;5054536;28;20206;-79
2022/03/05 03:52:35;;;;;;;23.87;15.47;;;;;;;5.81;52.43;94372.75;5054056;28;20195;-79
2022/03/05 03:55:02;;;;;;;22.90;14.70;;;;;;;5.80;52.35;94379.53;5054680;28;20202;-80
2022/03/05 03:57:29;;;;;;;25.73;16.07;;;;;;;5.74;52.53;94367.31;5063470;28;20195;-79
2022/03/05 03:59:56;;;;;;;22.93;14.90;;;;;;;5.75;52.54;94382.44;5056155;28;20210;-79
2022/03/05 04:02:23;;;;;;;26.17;14.73;;;;;;;5.74;52.63;94382.53;5056996;28;20198;-80
2022/03/05 04:04:51;;;;;;;22.97;14.70;;;;;;;5.73;52.54;94383.47;5054394;28;20199;-79
2022/03/05 04:10:04;;;;;;;23.00;14.53;;;;;;;5.68;52.99;94380.47;5054211;28;20190;-80
2022/03/05 04:12:31;;;;;;;23.50;15.23;;;;;;;5.61;52.90;94369.16;5053789;28;20191;-80
2022/03/05 04:14:58;;;;;;;25.67;15.00;;;;;;;5.66;53.15;94387.41;5053727;28;20202;-81
2022/03/05 04:17:24;;;;;;;21.60;14.40;;;;;;;5.64;52.99;94379.88;5053997;28;20244;-81
2022/03/05 04:19:53;;;;;;;21.43;14.80;;;;;;;5.62;53.03;94386.81;5053893;28;20246;-82
2022/03/05 04:22:19;;;;;;;23.83;16.43;;;;;;;5.53;53.18;94385.78;5053874;28;20576;-79
2022/03/05 04:24:46;;;;;;;24.60;17.03;;;;;;;5.56;53.01;94397.41;5053451;28;20199;-81
2022/03/05 04:27:13;;;;;;;27.00;16.67;;;;;;;5.53;53.12;94395.94;5053412;28;20206;-77
2022/03/05 04:29:40;;;;;;;24.93;15.77;;;;;;;5.49;53.53;94391.19;5053462;28;20203;-78
2022/03/05 04:32:09;;;;;;;23.60;16.27;;;;;;;5.04;53.03;94328.56;5053832;28;20589;-76
2022/03/05 04:34:35;;;;;;;28.73;17.60;;;;;;;5.32;52.98;94384.03;5053415;28;20240;-79
2022/03/05 04:37:04;;;;;;;29.13;18.73;;;;;;;5.43;52.91;94396.72;5053276;28;20191;-78
2022/03/05 04:39:31;;;;;;;26.47;16.27;;;;;;;5.39;53.03;94395.31;5052580;28;20704;-77
2022/03/05 04:41:58;;;;;;;26.10;17.60;;;;;;;5.36;53.00;94400.63;5053006;28;20677;-76
2022/03/05 04:44:24;;;;;;;28.80;17.37;;;;;;;5.32;52.96;94396.72;5053313;28;20206;-79
2022/03/05 04:46:51;;;;;;;27.10;17.93;;;;;;;5.29;52.94;94401.06;5053267;28;20191;-78
2022/03/05 04:49:18;;;;;;;27.83;18.37;;;;;;;5.21;53.01;94387.34;5052870;28;20195;-81
2022/03/05 04:51:45;;;;;;;27.33;17.93;;;;;;;5.22;53.23;94399.09;5052774;28;20191;-79
2022/03/05 04:54:13;;;;;;;26.57;17.10;;;;;;;5.20;53.23;94394.16;5052723;28;20195;-79
2022/03/05 04:56:40;;;;;;;30.63;18.13;;;;;;;5.18;52.99;94398.53;5052611;28;20667;-79
2022/03/05 04:59:07;;;;;;;28.20;18.53;;;;;;;5.16;52.96;94402.09;5051638;28;21427;-81
2022/03/05 05:01:34;;;;;;;30.10;18.87;;;;;;;5.14;53.16;94409.81;5053001;28;20187;-79
2022/03/05 05:04:01;;;;;;;34.57;20.10;;;;;;;5.13;53.22;94407.38;5052962;28;20739;-78
2022/03/05 05:06:27;;;;;;;39.57;21.97;;;;;;;5.12;53.23;94416.72;5053589;28;20195;-81
2022/03/05 05:08:54;;;;;;;40.47;19.97;;;;;;;5.00;53.16;94400.66;5053593;28;20202;-73
2022/03/05 05:11:23;;;;;;;45.17;23.23;;;;;;;5.11;53.06;94412.56;5053126;28;20666;-81
2022/03/05 05:13:49;;;;;;;42.13;21.90;;;;;;;5.09;52.93;94411.84;5053164;28;20187;-78
2022/03/05 05:16:16;;;;;;;39.40;21.67;;;;;;;5.12;52.75;94414.16;5052462;28;20658;-81
2022/03/05 05:19:24;;;;;;;39.37;22.20;;;;;;;5.15;52.81;94413.16;5052575;28;20213;-81
2022/03/05 05:21:30;;;;;;;42.70;22.67;;;;;;;5.18;52.57;94415.44;5052262;28;20282;-79
2022/03/05 05:23:58;;;;;;;38.67;21.23;;;;;;;5.07;52.52;94403.56;5053443;28;20658;-78
2022/03/05 05:26:26;;;;;;;39.70;21.90;;;;;;;5.22;52.31;94432.88;5053627;28;20574;-80
2022/03/05 05:28:53;;;;;;;39.00;22.13;;;;;;;5.26;52.16;94441.84;5053826;28;20191;-82
2022/03/05 05:31:20;;;;;;;47.33;21.73;;;;;;;5.29;52.02;94441.63;5052530;28;20198;-80
2022/03/05 05:33:46;;;;;;;41.80;21.83;;;;;;;5.14;51.93;94414.88;5053081;28;20215;-80
2022/03/05 05:36:13;;;;;;;36.90;20.67;;;;;;;5.37;51.88;94451.22;5051796;28;20191;-80
2022/03/05 05:38:40;;;;;;;36.33;19.47;;;;;;;5.20;51.54;94424.56;5052092;28;20192;-77
2022/03/05 05:41:08;;;;;;;42.97;21.27;;;;;;;5.46;51.43;94459.88;5051683;28;20274;-82
2022/03/05 05:43:36;;;;;;;40.43;20.20;;;;;;;5.48;51.34;94461.41;5052132;28;20194;-81
2022/03/05 05:46:03;;;;;;;35.10;19.20;;;;;;;5.53;50.79;94459.31;5051631;28;20663;-80
2022/03/05 05:48:30;;;;;;;37.77;19.23;;;;;;;5.58;50.92;94458.19;5052131;28;20206;-75
2022/03/05 05:50:57;;;;;;;33.50;18.57;;;;;;;5.60;50.75;94457.13;5052700;28;20661;-73
2022/03/05 05:53:25;;;;;;;34.47;18.27;;;;;;;5.56;50.51;94448.13;5052318;28;20187;-79
2022/03/05 05:55:54;;;;;;;32.47;18.93;;;;;;;5.70;50.43;94464.84;5051417;28;20701;-79
2022/03/05 05:58:21;;;;;;;32.87;17.87;;;;;;;5.75;50.35;94460.28;5051725;28;20634;-81
2022/03/05 06:00:50;;;;;;;33.23;17.00;;;;;;;5.62;50.39;94441.81;5051581;28;20218;-78
2022/03/05 06:03:17;;;;;;;31.43;16.90;;;;;;;5.81;49.92;94464.06;5051370;28;20187;-73
2022/03/05 06:05:44;;;;;;;26.77;16.77;;;;;;;5.88;49.88;94483.00;5051646;28;20194;-79
2022/03/05 06:08:10;;;;;;;25.67;16.93;;;;;;;5.91;49.74;94480.22;5051296;28;20256;-78
2022/03/05 06:10:37;;;;;;;29.50;16.53;;;;;;;5.95;49.52;94481.63;5050616;28;20329;-78
2022/03/05 06:13:04;;;;;;;29.27;17.97;;;;;;;5.97;49.47;94485.69;5051554;28;20190;-76
2022/03/05 06:15:31;;;;;;;28.53;17.43;;;;;;;6.01;49.21;94492.16;5051237;28;20658;-76
2022/03/05 06:17:59;;;;;;;26.70;17.60;;;;;;;6.05;49.15;94492.75;5050967;28;20191;-81
2022/03/05 06:20:26;;;;;;;28.47;19.40;;;;;;;6.10;48.97;94493.19;5050926;28;20242;-78
2022/03/05 06:22:53;;;;;;;27.70;18.70;;;;;;;6.14;48.93;94494.56;5051066;28;20191;-78
2022/03/05 06:25:20;;;;;;;31.13;19.47;;;;;;;6.21;48.93;94492.38;5051994;28;20670;-74
2022/03/05 06:27:46;;;;;;;32.43;18.47;;;;;;;6.25;48.75;94492.00;5053973;28;20281;-77
2022/03/05 06:30:14;;;;;;;31.57;18.10;;;;;;;6.38;48.71;94502.06;5050919;28;20225;-79
2022/03/05 06:32:41;;;;;;;35.73;19.27;;;;;;;6.47;48.45;94500.53;5050756;28;20183;-81
2022/03/05 06:35:10;;;;;;;32.47;18.83;;;;;;;6.57;48.32;94498.13;5051294;28;20187;-81
2022/03/05 06:37:37;;;;;;;29.33;18.63;;;;;;;6.77;48.13;94492.28;5050682;28;20195;-82
2022/03/05 06:40:05;;;;;;;27.37;17.43;;;;;;;6.42;47.99;94413.72;5050640;28;20230;-78
2022/03/05 06:42:32;;;;;;;30.63;18.03;;;;;;;7.06;47.77;94490.00;5050929;28;20206;-79
2022/03/05 06:44:58;;;;;;;24.97;18.60;;;;;;;7.24;47.56;94497.91;5050724;28;20638;-79
2022/03/05 06:47:25;;;;;;;27.53;18.80;;;;;;;7.37;47.40;94497.72;5050909;28;20190;-80
2022/03/05 06:49:53;;;;;;;29.40;18.40;;;;;;;7.59;47.21;94501.91;5050893;28;20198;-81
2022/03/05 06:52:21;;;;;;;29.47;19.50;;;;;;;7.80;46.96;94502.69;5051346;28;20210;-79
2022/03/05 06:54:48;;;;;;;30.07;18.90;;;;;;;8.03;46.75;94498.25;5050899;28;20199;-81
2022/03/05 06:57:15;;;;;;;34.73;20.50;;;;;;;8.24;46.66;94495.66;5050798;28;20254;-80
2022/03/05 06:59:41;;;;;;;29.23;19.53;;;;;;;8.43;46.28;94503.41;5049987;28;20718;-80
2022/03/05 07:02:08;;;;;;;32.83;19.73;;;;;;;8.60;45.73;94499.44;5050614;28;20198;-82
2022/03/05 07:04:35;;;;;;;29.87;19.57;;;;;;;8.49;45.70;94456.22;5050189;28;20183;-78
2022/03/05 07:07:02;;;;;;;30.80;19.40;;;;;;;8.91;45.58;94494.28;5050506;28;20573;-77
2022/03/05 07:09:30;;;;;;;35.73;19.47;;;;;;;9.04;45.25;94490.53;5050663;28;20315;-80
2022/03/05 07:11:57;;;;;;;28.57;18.90;;;;;;;9.20;44.86;94492.56;5050514;28;20195;-78
2022/03/05 07:14:24;;;;;;;30.87;19.03;;;;;;;9.34;44.56;94488.78;5051857;28;20191;-81
2022/03/05 07:16:51;;;;;;;27.80;19.47;;;;;;;9.48;44.50;94490.09;5050266;28;20191;-75
2022/03/05 07:19:18;;;;;;;26.57;18.73;;;;;;;9.63;44.18;94482.81;5050332;28;20225;-80
2022/03/05 07:21:44;;;;;;;32.43;19.63;;;;;;;9.78;43.96;94489.13;5052277;28;20193;-79
2022/03/05 07:24:12;;;;;;;32.53;17.97;;;;;;;9.92;43.64;94487.88;5056740;28;20194;-81
2022/03/05 07:26:40;;;;;;;29.83;19.53;;;;;;;9.82;43.55;94444.50;5056987;28;20289;-78
2022/03/05 07:29:07;;;;;;;28.00;19.17;;;;;;;10.23;43.39;94481.59;5056995;28;20195;-80
2022/03/05 07:31:34;;;;;;;28.47;20.17;;;;;;;10.41;43.23;94474.03;5057141;28;20194;-83
2022/03/05 07:34:01;;;;;;;29.57;18.93;;;;;;;10.58;42.90;94477.56;5057705;28;20190;-80
2022/03/05 07:36:30;;;;;;;25.50;18.83;;;;;;;10.83;42.40;94475.25;5056744;28;20582;-81
2022/03/05 07:38:56;;;;;;;27.03;18.57;;;;;;;11.00;42.47;94470.16;5057132;28;20226;-81
2022/03/05 07:41:23;;;;;;;28.30;17.93;;;;;;;11.25;42.20;94483.16;5056977;28;20727;-81
2022/03/05 07:43:52;;;;;;;27.57;19.00;;;;;;;11.46;42.21;94478.56;5057083;28;20194;-81
2022/03/05 07:46:19;;;;;;;29.17;18.80;;;;;;;11.65;41.66;94476.75;5057664;28;20190;-74
2022/03/05 07:48:45;;;;;;;33.80;20.70;;;;;;;11.78;41.09;94472.03;5057251;28;20650;-81
2022/03/05 07:51:12;;;;;;;28.77;19.07;;;;;;;11.87;40.85;94478.84;5057272;28;20202;-80
2022/03/05 07:53:39;;;;;;;27.93;19.20;;;;;;;11.81;40.43;94461.50;5057202;28;20245;-80
2022/03/05 07:56:06;;;;;;;30.77;18.70;;;;;;;12.00;40.25;94475.88;5056816;28;20201;-77
2022/03/05 07:58:33;;;;;;;25.83;18.40;;;;;;;12.03;39.96;94481.53;5056812;28;20191;-78
2022/03/05 08:01:01;;;;;;;26.97;18.83;;;;;;;12.05;39.73;94471.94;5057226;28;20508;-81
2022/03/05 08:03:28;;;;;;;31.43;18.77;;;;;;;12.09;39.62;94475.00;5056853;28;20191;-80
2022/03/05 08:05:56;;;;;;;25.63;18.27;;;;;;;12.11;39.43;94474.84;5059472;28;20252;-80
2022/03/05 08:08:23;;;;;;;29.13;17.80;;;;;;;12.16;39.37;94482.88;5057210;28;20631;-79
2022/03/05 08:10:49;;;;;;;25.33;17.30;;;;;;;12.19;39.04;94482.56;5058075;28;20662;-78
2022/03/05 08:13:16;;;;;;;27.33;18.07;;;;;;;12.23;39.01;94487.25;5056616;28;20194;-80
2022/03/05 08:15:43;;;;;;;22.90;16.80;;;;;;;12.33;38.68;94482.00;5056878;28;20187;-80
2022/03/05 08:18:11;;;;;;;24.77;17.30;;;;;;;12.38;38.69;94469.50;5056273;28;20195;-78
2022/03/05 08:20:38;;;;;;;25.20;17.67;;;;;;;12.53;38.58;94482.56;5056362;28;20226;-81
2022/03/05 08:23:05;;;;;;;25.27;16.20;;;;;;;12.61;38.38;94484.34;5056721;28;20674;-81
2022/03/05 08:25:32;;;;;;;28.70;17.33;;;;;;;12.68;38.28;94486.13;5055984;28;20685;-81
2022/03/05 08:27:59;;;;;;;23.37;16.63;;;;;;;12.69;38.41;94471.53;5056671;28;20190;-79
2022/03/05 08:30:26;;;;;;;22.53;16.50;;;;;;;12.98;37.53;94481.41;5055943;28;20662;-79
2022/03/05 08:32:53;;;;;;;22.07;16.30;;;;;;;13.07;37.89;94467.63;5055431;28;20202;-81
2022/03/05 08:35:21;;;;;;;28.00;16.90;;;;;;;13.27;37.91;94471.53;5052323;28;20199;-79
2022/03/05 08:37:49;;;;;;;28.03;17.87;;;;;;;13.48;37.66;94486.47;5053269;28;20195;-79
2022/03/05 08:40:16;;;;;;;24.33;18.80;;;;;;;13.58;37.53;94483.75;5052798;28;20229;-80
2022/03/05 08:42:43;;;;;;;26.53;18.13;;;;;;;13.64;37.53;94483.09;5053049;28;20183;-76
2022/03/05 08:45:11;;;;;;;28.37;19.23;;;;;;;13.69;37.31;94491.13;5052686;28;20200;-75
2022/03/05 08:47:38;;;;;;;27.73;17.90;;;;;;;13.64;36.90;94475.38;5052701;28;20202;-81
2022/03/05 08:50:07;;;;;;;28.43;17.70;;;;;;;13.71;36.90;94491.75;5052512;28;20603;-80
2022/03/05 08:52:36;;;;;;;26.10;17.80;;;;;;;13.73;36.71;94483.88;5052906;28;20184;-80
2022/03/05 08:55:05;;;;;;;32.43;19.40;;;;;;;13.74;36.69;94483.75;5052321;28;20310;-81
2022/03/05 08:57:31;;;;;;;31.07;18.47;;;;;;;13.65;36.73;94471.06;5053973;28;20230;-79
2022/03/05 08:59:58;;;;;;;23.93;17.67;;;;;;;13.76;36.65;94486.94;5054144;28;20581;-78
2022/03/05 09:02:25;;;;;;;26.27;17.50;;;;;;;13.65;36.50;94468.50;5052538;28;20195;-81
2022/03/05 09:04:52;;;;;;;26.67;17.97;;;;;;;13.79;36.58;94486.63;5052468;28;20195;-80
2022/03/05 09:07:19;;;;;;;27.90;18.63;;;;;;;13.77;36.38;94480.03;5052486;28;20204;-79
2022/03/05 09:09:47;;;;;;;24.50;17.93;;;;;;;13.84;36.58;94485.34;5052330;28;20179;-80
2022/03/05 09:12:14;;;;;;;29.07;19.10;;;;;;;13.79;36.82;94476.34;5052191;28;20191;-80
2022/03/05 09:14:40;;;;;;;25.43;17.80;;;;;;;13.83;36.81;94486.31;5052630;28;20202;-81
2022/03/05 09:17:07;;;;;;;30.27;18.40;;;;;;;13.78;37.19;94471.38;5051948;28;20198;-80
2022/03/05 09:19:34;;;;;;;22.57;17.10;;;;;;;13.75;37.40;94475.06;5052145;28;20333;-81
2022/03/05 09:22:01;;;;;;;30.73;17.77;;;;;;;13.74;37.68;94478.59;5051772;28;20721;-80
2022/03/05 09:24:28;;;;;;;23.40;17.17;;;;;;;13.71;37.87;94472.97;5052301;28;20682;-79
2022/03/05 09:26:56;;;;;;;24.33;16.23;;;;;;;13.74;38.27;94472.66;5051890;28;20244;-79
2022/03/05 09:29:23;;;;;;;20.80;16.07;;;;;;;13.76;38.46;94476.66;5052268;28;20568;-80
2022/03/05 09:31:50;;;;;;;21.27;15.60;;;;;;;13.62;38.55;94443.91;5051684;28;20206;-79
2022/03/05 09:34:17;;;;;;;19.83;15.33;;;;;;;13.87;38.59;94475.53;5052561;28;20198;-80
2022/03/05 09:36:44;;;;;;;22.70;15.30;;;;;;;13.94;38.75;94475.66;5051984;28;20202;-81
2022/03/05 09:39:11;;;;;;;22.83;15.47;;;;;;;13.97;39.04;94468.44;5051861;28;20209;-78
2022/03/05 09:41:40;;;;;;;22.37;15.00;;;;;;;14.13;39.17;94474.53;5051810;28;20222;-77
2022/03/05 09:44:08;;;;;;;24.50;14.77;;;;;;;14.24;39.00;94466.44;5051863;28;20277;-74
2022/03/05 09:46:36;;;;;;;17.07;12.73;;;;;;;14.29;39.14;94461.59;5051676;28;20187;-82
2022/03/05 09:49:04;;;;;;;23.83;15.37;;;;;;;14.48;39.23;94460.41;5051594;28;20207;-79
2022/03/05 09:51:32;;;;;;;19.07;12.73;;;;;;;14.64;38.89;94457.00;5051918;28;20194;-77
2022/03/05 09:53:59;;;;;;;21.40;13.00;;;;;;;14.59;38.84;94430.97;5051389;28;20646;-79
2022/03/05 09:56:28;;;;;;;17.50;12.40;;;;;;;14.92;38.63;94462.47;5052094;28;20202;-76
2022/03/05 09:58:56;;;;;;;18.47;11.70;;;;;;;15.03;38.31;94455.19;5051529;28;20281;-78
2022/03/05 10:01:24;;;;;;;13.73;10.80;;;;;;;15.08;38.12;94453.88;5051281;28;20233;-78
2022/03/05 10:03:53;;;;;;;13.63;10.97;;;;;;;15.13;38.06;94451.56;5051037;28;20183;-80
2022/03/05 10:06:21;;;;;;;15.90;11.87;;;;;;;15.19;37.97;94471.47;5051344;28;20642;-78
2022/03/05 10:08:51;;;;;;;17.33;11.70;;;;;;;15.23;38.05;94459.88;5052062;28;20197;-76
2022/03/05 10:11:18;;;;;;;14.57;11.77;;;;;;;15.26;37.90;94455.19;5051610;28;20244;-76
2022/03/05 10:13:46;;;;;;;16.23;12.20;;;;;;;15.30;37.83;94458.22;5051547;28;20183;-79
2022/03/05 10:16:29;;;;;;;15.43;12.07;;;;;;;15.16;37.68;94425.47;5051255;28;20210;-79
2022/03/05 10:18:56;;;;;;;17.80;12.50;;;;;;;15.30;37.91;94459.00;5050815;28;20285;-77
2022/03/05 10:21:31;;;;;;;13.60;11.80;;;;;;;15.14;37.75;94430.00;5051206;28;20250;-80
2022/03/05 10:24:07;;;;;;;19.53;12.47;;;;;;;15.25;37.80;94450.22;5051449;28;20179;-79
2022/03/05 10:26:53;;;;;;;19.97;12.47;;;;;;;15.25;37.77;94456.16;5050452;28;20190;-80
2022/03/05 10:29:21;;;;;;;15.90;12.17;;;;;;;15.23;37.89;94450.34;5050738;28;20195;-77
2022/03/05 10:32:02;;;;;;;19.07;12.97;;;;;;;15.27;38.06;94450.81;5051581;28;20187;-79
2022/03/05 10:34:30;;;;;;;15.57;13.87;;;;;;;14.85;38.14;94390.25;5050939;28;20776;-76
2022/03/05 10:37:02;;;;;;;14.23;12.07;;;;;;;15.15;38.07;94444.47;5051116;28;20186;-78
2022/03/05 10:39:29;;;;;;;16.83;13.10;;;;;;;14.90;38.23;94430.97;5050865;28;20187;-78
2022/03/05 10:41:57;;;;;;;16.43;12.77;;;;;;;14.92;38.61;94449.59;5050421;28;20222;-80
2022/03/05 10:44:25;;;;;;;18.77;12.53;;;;;;;14.73;38.55;94443.13;5050756;28;20191;-77
2022/03/05 10:47:00;;;;;;;16.43;12.90;;;;;;;14.49;38.97;94433.75;5050596;28;20194;-79
2022/03/05 10:49:31;;;;;;;16.33;14.03;;;;;;;14.38;38.93;94439.22;5050682;28;20186;-80
2022/03/05 10:52:07;;;;;;;18.33;12.00;;;;;;;14.23;39.37;94451.97;5050901;28;20217;-81
2022/03/05 10:54:38;;;;;;;19.90;13.43;;;;;;;14.01;39.59;94445.78;5051197;28;20209;-76
2022/03/05 10:57:10;;;;;;;14.43;12.40;;;;;;;13.76;40.29;94442.44;5050194;28;20202;-78
2022/03/05 10:59:39;;;;;;;14.97;12.23;;;;;;;13.48;40.56;94429.97;5054245;28;20191;-79
2022/03/05 11:02:08;;;;;;;22.40;13.23;;;;;;;13.34;40.81;94427.22;5050858;28;20218;-78
2022/03/05 11:04:36;;;;;;;18.80;13.47;;;;;;;13.03;41.10;94397.03;5050776;28;20194;-79
2022/03/05 11:07:04;;;;;;;18.37;13.33;;;;;;;12.95;41.29;94400.41;5050942;28;20632;-80
2022/03/05 11:09:32;;;;;;;19.53;13.90;;;;;;;12.95;41.64;94418.38;5050658;28;20202;-79
2022/03/05 11:12:00;;;;;;;16.50;12.93;;;;;;;12.90;41.93;94422.34;5050250;28;20222;-76
2022/03/05 11:14:28;;;;;;;19.37;13.03;;;;;;;12.83;42.33;94423.97;5050093;28;20199;-81
2022/03/05 11:16:56;;;;;;;17.53;12.83;;;;;;;12.51;42.76;94387.00;5050812;28;20183;-80
2022/03/05 11:19:25;;;;;;;18.17;12.50;;;;;;;12.72;42.85;94414.78;5050067;28;20227;-76
2022/03/05 11:21:52;;;;;;;17.23;13.37;;;;;;;12.75;43.02;94409.34;5050663;28;20305;-77
2022/03/05 11:24:21;;;;;;;20.93;14.37;;;;;;;12.78;43.18;94411.63;5050202;28;20183;-73
2022/03/05 11:26:49;;;;;;;20.37;13.60;;;;;;;12.79;43.27;94410.66;5052513;28;20195;-82